createdAt,value
2022-12-29T00:06:59.255Z,-0.61
2022-12-29T00:09:28.628Z,-0.61
2022-12-29T00:11:55.425Z,-0.60
2022-12-29T00:14:40.617Z,-0.66
2022-12-29T00:17:07.631Z,-0.83
2022-12-29T00:19:53.390Z,-0.99
2022-12-29T00:22:46.150Z,-0.96
2022-12-29T00:25:32.338Z,-0.82
2022-12-29T00:28:17.723Z,-0.79
2022-12-29T00:31:03.305Z,-0.72
2022-12-29T00:33:52.682Z,-0.63
2022-12-29T00:36:30.482Z,-0.63
2022-12-29T00:39:29.025Z,-0.69
2022-12-29T00:42:14.367Z,-0.61
2022-12-29T00:44:43.945Z,-0.54
2022-12-29T00:47:13.313Z,-0.49
2022-12-29T00:49:41.144Z,-0.46
2022-12-29T00:52:10.446Z,-0.48
2022-12-29T00:54:39.357Z,-0.51
2022-12-29T00:57:12.758Z,-0.61
2022-12-29T00:59:42.260Z,-0.62
2022-12-29T01:02:11.988Z,-0.55
2022-12-29T01:04:40.818Z,-0.61
2022-12-29T01:07:08.284Z,-0.68
2022-12-29T01:09:53.450Z,-0.69
2022-12-29T01:12:40.231Z,-0.64
2022-12-29T01:15:12.809Z,-0.63
2022-12-29T01:17:41.954Z,-0.63
2022-12-29T01:20:09.479Z,-0.69
2022-12-29T01:22:36.392Z,-0.72
2022-12-29T01:25:05.771Z,-0.73
2022-12-29T01:27:32.557Z,-0.72
2022-12-29T01:29:59.262Z,-0.65
2022-12-29T01:32:28.138Z,-0.59
2022-12-29T01:34:58.795Z,-0.58
2022-12-29T01:37:27.051Z,-0.61
2022-12-29T01:39:53.752Z,-0.65
2022-12-29T01:42:25.880Z,-0.76
2022-12-29T01:45:09.121Z,-0.86
2022-12-29T01:47:41.784Z,-1.01
2022-12-29T01:50:29.008Z,-1.10
2022-12-29T01:53:23.025Z,-1.05
2022-12-29T01:55:54.491Z,-0.97
2022-12-29T01:58:27.964Z,-0.90
2022-12-29T02:00:54.974Z,-0.87
2022-12-29T02:03:24.893Z,-0.84
2022-12-29T02:06:09.994Z,-0.88
2022-12-29T02:08:39.613Z,-0.91
2022-12-29T02:11:06.626Z,-0.93
2022-12-29T02:13:35.141Z,-0.90
2022-12-29T02:16:37.123Z,-0.96
2022-12-29T02:19:46.616Z,-0.95
2022-12-29T02:22:28.635Z,-0.99
2022-12-29T02:25:07.503Z,-1.03
2022-12-29T02:27:52.632Z,-1.04
2022-12-29T02:30:40.985Z,-0.99
2022-12-29T02:33:13.476Z,-0.94
2022-12-29T02:36:21.147Z,-0.92
2022-12-29T02:38:57.433Z,-0.95
2022-12-29T02:41:39.437Z,-0.95
2022-12-29T02:44:18.964Z,-1.01
2022-12-29T02:46:55.702Z,-1.09
2022-12-29T02:49:59.821Z,-1.13
2022-12-29T02:52:34.258Z,-1.22
2022-12-29T02:55:01.117Z,-1.26
2022-12-29T02:57:35.466Z,-1.34
2022-12-29T03:00:18.154Z,-1.36
2022-12-29T03:03:06.682Z,-1.37
2022-12-29T03:05:55.847Z,-1.34
2022-12-29T03:08:49.775Z,-1.32
2022-12-29T03:11:35.709Z,-1.32
2022-12-29T03:14:59.508Z,-1.30
2022-12-29T03:17:41.406Z,-1.18
2022-12-29T03:20:15.093Z,-1.24
2022-12-29T03:22:45.304Z,-1.35
2022-12-29T03:25:24.199Z,-1.36
2022-12-29T03:28:01.441Z,-1.31
2022-12-29T03:30:31.013Z,-1.34
2022-12-29T03:33:06.622Z,-1.43
2022-12-29T03:35:39.207Z,-1.65
2022-12-29T03:38:25.853Z,-1.65
2022-12-29T03:40:57.365Z,-1.61
2022-12-29T03:43:26.598Z,-1.58
2022-12-29T03:45:53.412Z,-1.52
2022-12-29T03:48:20.603Z,-1.47
2022-12-29T03:50:50.031Z,-1.52
2022-12-29T03:53:18.725Z,-1.51
2022-12-29T03:55:47.481Z,-1.49
2022-12-29T03:58:14.276Z,-1.47
2022-12-29T04:01:10.189Z,-1.55
2022-12-29T04:03:37.257Z,-1.56
2022-12-29T04:06:05.041Z,-1.52
2022-12-29T04:08:40.573Z,-1.47
2022-12-29T04:11:07.604Z,-1.70
2022-12-29T04:13:37.858Z,-1.91
2022-12-29T04:16:05.061Z,-1.99
2022-12-29T04:18:33.329Z,-1.90
2022-12-29T04:21:01.347Z,-1.80
2022-12-29T04:23:43.685Z,-1.90
2022-12-29T04:26:15.107Z,-1.95
2022-12-29T04:28:57.803Z,-1.86
2022-12-29T04:31:55.832Z,-1.81
2022-12-29T04:34:25.641Z,-1.84
2022-12-29T04:36:52.494Z,-1.81
2022-12-29T04:39:21.674Z,-1.81
2022-12-29T04:41:48.657Z,-1.76
2022-12-29T04:44:19.132Z,-1.69
2022-12-29T04:47:05.530Z,-1.60
2022-12-29T04:49:45.487Z,-1.62
2022-12-29T04:52:28.202Z,-1.70
2022-12-29T04:54:57.599Z,-1.71
2022-12-29T04:57:27.173Z,-1.71
2022-12-29T04:59:56.952Z,-1.80
2022-12-29T05:02:29.311Z,-1.86
2022-12-29T05:05:11.686Z,-1.88
2022-12-29T05:07:44.293Z,-1.89
2022-12-29T05:10:11.476Z,-1.84
2022-12-29T05:12:40.976Z,-1.76
2022-12-29T05:15:09.745Z,-1.78
2022-12-29T05:17:39.360Z,-1.79
2022-12-29T05:20:10.272Z,-1.76
2022-12-29T05:22:37.694Z,-1.76
2022-12-29T05:25:05.928Z,-1.69
2022-12-29T05:27:40.381Z,-1.61
2022-12-29T05:30:18.826Z,-1.68
2022-12-29T05:32:45.831Z,-1.75
2022-12-29T05:35:13.239Z,-1.79
2022-12-29T05:37:40.342Z,-1.79
2022-12-29T05:40:08.305Z,-1.80
2022-12-29T05:42:35.200Z,-1.75
2022-12-29T05:45:26.522Z,-1.85
2022-12-29T05:47:57.770Z,-1.86
2022-12-29T05:50:51.643Z,-2.00
2022-12-29T05:53:24.140Z,-2.07
2022-12-29T05:55:50.999Z,-2.08
2022-12-29T05:58:18.386Z,-2.29
2022-12-29T06:00:45.753Z,-2.34
2022-12-29T06:03:12.753Z,-2.27
2022-12-29T06:05:40.842Z,-2.28
2022-12-29T06:08:08.785Z,-2.35
2022-12-29T06:10:35.627Z,-2.54
2022-12-29T06:13:06.501Z,-2.65
2022-12-29T06:15:36.858Z,-2.88
2022-12-29T06:18:19.381Z,-3.08
2022-12-29T06:20:49.232Z,-3.19
2022-12-29T06:23:18.873Z,-3.11
2022-12-29T06:25:47.983Z,-3.08
2022-12-29T06:28:14.711Z,-3.12
2022-12-29T06:30:45.383Z,-3.15
2022-12-29T06:33:12.972Z,-3.19
2022-12-29T06:35:39.724Z,-3.20
2022-12-29T06:38:06.312Z,-3.29
2022-12-29T06:40:34.973Z,-3.18
2022-12-29T06:43:10.504Z,-3.05
2022-12-29T06:45:55.623Z,-3.00
2022-12-29T06:48:22.745Z,-3.05
2022-12-29T06:50:49.333Z,-3.03
2022-12-29T06:53:16.235Z,-3.02
2022-12-29T06:55:43.247Z,-3.11
2022-12-29T06:58:12.588Z,-3.15
2022-12-29T07:00:39.802Z,-3.12
2022-12-29T07:03:06.567Z,-3.19
2022-12-29T07:05:33.279Z,-3.36
2022-12-29T07:08:00.374Z,-3.38
2022-12-29T07:10:27.432Z,-3.28
2022-12-29T07:12:54.072Z,-3.14
2022-12-29T07:15:20.726Z,-3.12
2022-12-29T07:17:47.375Z,-3.26
2022-12-29T07:20:13.883Z,-3.23
2022-12-29T07:22:40.495Z,-3.11
2022-12-29T07:25:07.650Z,-2.91
2022-12-29T07:27:34.183Z,-2.76
2022-12-29T07:30:00.753Z,-2.70
2022-12-29T07:32:27.287Z,-2.72
2022-12-29T07:34:53.919Z,-2.72
2022-12-29T07:37:20.616Z,-2.67
2022-12-29T07:39:47.545Z,-2.57
2022-12-29T07:42:14.117Z,-2.53
2022-12-29T07:44:44.449Z,-2.45
2022-12-29T07:47:19.413Z,-2.39
2022-12-29T07:49:46.076Z,-2.34
2022-12-29T07:52:12.698Z,-2.14
2022-12-29T07:54:39.203Z,-1.86
2022-12-29T07:57:06.209Z,-1.59
2022-12-29T07:59:32.701Z,-1.37
2022-12-29T08:01:59.406Z,-1.17
2022-12-29T08:04:26.025Z,-1.03
2022-12-29T08:06:52.743Z,-0.89
2022-12-29T08:09:22.616Z,-0.81
2022-12-29T08:11:51.177Z,-0.74
2022-12-29T08:14:18.619Z,-0.72
2022-12-29T08:16:47.938Z,-0.60
2022-12-29T08:19:14.665Z,-0.43
2022-12-29T08:21:41.353Z,-0.29
2022-12-29T08:24:09.157Z,-0.16
2022-12-29T08:26:35.897Z,-0.09
2022-12-29T08:29:02.489Z,-0.01
2022-12-29T08:31:29.323Z,0.06
2022-12-29T08:33:56.048Z,0.11
2022-12-29T08:36:23.072Z,0.18
2022-12-29T08:38:49.881Z,0.26
2022-12-29T08:41:16.881Z,0.33
2022-12-29T08:43:49.641Z,0.35
2022-12-29T08:46:17.416Z,0.41
2022-12-29T08:48:44.436Z,0.49
2022-12-29T08:51:11.459Z,0.56
2022-12-29T08:53:38.084Z,0.56
2022-12-29T08:56:05.875Z,0.59
2022-12-29T08:58:39.035Z,0.63
2022-12-29T09:01:05.681Z,0.66
2022-12-29T09:06:20.351Z,0.66
2022-12-29T09:08:49.695Z,0.57
2022-12-29T09:11:19.946Z,0.55
2022-12-29T09:13:48.005Z,0.53
2022-12-29T09:16:16.132Z,0.55
2022-12-29T09:18:44.531Z,0.57
2022-12-29T09:21:11.750Z,0.63
2022-12-29T09:23:43.524Z,0.69
2022-12-29T09:26:10.158Z,0.76
2022-12-29T09:28:37.141Z,0.81
2022-12-29T09:31:04.060Z,0.79
2022-12-29T09:33:32.881Z,0.67
2022-12-29T09:36:00.571Z,0.74
2022-12-29T09:38:28.911Z,0.83
2022-12-29T09:41:14.543Z,0.97
2022-12-29T09:43:59.137Z,1.08
2022-12-29T09:46:29.040Z,1.18
2022-12-29T09:49:13.380Z,1.25
2022-12-29T09:51:43.498Z,1.28
2022-12-29T09:54:35.122Z,1.32
2022-12-29T09:57:01.733Z,1.22
2022-12-29T09:59:40.504Z,1.27
2022-12-29T10:02:37.147Z,1.33
2022-12-29T10:05:04.989Z,1.39
2022-12-29T10:07:41.185Z,1.41
2022-12-29T10:10:23.544Z,1.45
2022-12-29T10:13:09.475Z,1.49
2022-12-29T10:15:56.959Z,1.56
2022-12-29T10:18:41.073Z,1.62
2022-12-29T10:21:29.438Z,1.64
2022-12-29T10:23:56.812Z,1.62
2022-12-29T10:26:30.622Z,1.68
2022-12-29T10:29:04.086Z,1.87
2022-12-29T10:31:43.277Z,2.12
2022-12-29T10:34:44.406Z,2.36
2022-12-29T10:37:39.230Z,2.63
2022-12-29T10:40:20.366Z,2.97
2022-12-29T10:42:52.986Z,3.29
2022-12-29T10:45:21.740Z,3.57
2022-12-29T10:48:09.710Z,3.78
2022-12-29T10:50:43.051Z,4.11
2022-12-29T10:53:20.922Z,4.47
2022-12-29T10:55:48.119Z,4.81
2022-12-29T10:58:16.543Z,5.15
2022-12-29T11:00:49.951Z,5.25
2022-12-29T11:03:28.834Z,5.59
2022-12-29T11:06:02.905Z,5.92
2022-12-29T11:08:38.192Z,5.99
2022-12-29T11:11:10.467Z,6.31
2022-12-29T11:13:50.646Z,6.64
2022-12-29T11:16:35.163Z,6.52
2022-12-29T11:19:05.170Z,7.18
2022-12-29T11:21:33.994Z,7.68
2022-12-29T11:24:06.467Z,7.84
2022-12-29T11:26:35.028Z,7.98
2022-12-29T11:29:07.838Z,8.19
2022-12-29T11:31:50.101Z,8.42
2022-12-29T11:34:30.788Z,8.83
2022-12-29T11:37:14.759Z,9.10
2022-12-29T11:40:03.709Z,8.95
2022-12-29T11:42:38.667Z,9.06
2022-12-29T11:45:19.293Z,9.19
2022-12-29T11:47:50.077Z,9.42
2022-12-29T11:50:32.809Z,9.77
2022-12-29T11:53:16.115Z,9.94
2022-12-29T11:55:58.403Z,9.90
2022-12-29T11:58:39.194Z,9.66
2022-12-29T12:01:47.451Z,9.64
2022-12-29T12:04:29.564Z,9.61
2022-12-29T12:07:13.267Z,9.21
2022-12-29T12:10:07.515Z,9.17
2022-12-29T12:12:51.174Z,9.29
2022-12-29T12:15:58.686Z,9.27
2022-12-29T12:18:52.299Z,9.12
2022-12-29T12:21:33.659Z,8.93
2022-12-29T12:24:21.740Z,8.84
